Forside
METAR-TAF:

METAR-TAF

Lufthavne :

Harbin, Kina

Breddekreds: 45-45N, længdekreds: 126-46E, højde: 143 m

Aktuelle vejr

Denne rapport blev lavet for 1 time og 2 minutter siden, kl. 20:00 UTC
Vind 6 kt fra nordnordøst
Temperatur 17°C
Fugtighed 88%
Tryk 1012 hPa
Sigt 10 km eller mere
ingen skyer under 1500m og ingen cumulonimbus

METAR: ZYHB 142000Z 03003MPS CAVOK 17/15 Q1012 NOSIG

Tid: 05:02 (21:02 UTC)

Vejrudsigter

Denne rapport blev lavet for 5 timer og 49 minutter siden, kl. 15:13 UTC
Foreløbig gælder fra 14 på 18 UTC til 15 på 18 UTC
Vind 6 kt fra østnordøst
Sigt: 6000 m
Spredte skyer i en højde af 3000 ft

TAF: ZYHB 141513Z 1418/1518 06003MPS 6000 SCT030 TX26/1506Z TN17/1420Z

Vejrobservationer og prognoser fra mere end 4000 lufthavne (METAR og TAF).

De gule og røde prikker repræsenterer de meteorologiske stationer.

Flyt musen over at se navnet på stationen.

Så klik over at se vejr observationer og prognoser.

At skifte det kort: Klik på de grønne knapper med et sort kors for at zoome ind; på den grønne knap med en bindestreg for at zoome ud; eller på de grønne pile for tilstødende kort.


METAR-TAF: